Time;durP1;ratioP1;P1;durP2;ratioP2;P2;SDS_P1;SDS_P2;PMS_P1;PMS_P2;Temp;Humidity;BMP_temperature;BMP_pressure;BME280_temperature;BME280_humidity;BME280_pressure;Samples;Min_cycle;Max_cycle;Signal;HPM_P1;HPM_P2
2023/04/18 00:01:09;;;;;;;16.98;10.75;;;;;;;;;;5051597;28;20041;-73
2023/04/18 00:03:37;;;;;;;15.80;11.05;;;;;;;;;;5053616;28;20090;-73
2023/04/18 00:06:03;;;;;;;18.17;11.00;;;;;;;;;;5054095;28;20041;-73
2023/04/18 00:08:29;;;;;;;17.10;11.43;;;;;;;;;;5054044;28;20044;-73
2023/04/18 00:10:58;;;;;;;18.75;10.63;;;;;;;;;;5052828;28;20049;-73
2023/04/18 00:13:27;;;;;;;13.55;10.73;;;;;;;;;;5053832;28;20041;-73
2023/04/18 00:15:53;;;;;;;14.93;9.90;;;;;;;;;;5053610;28;20133;-74
2023/04/18 00:18:20;;;;;;;16.90;10.50;;;;;;;;;;5053794;28;20085;-73
2023/04/18 00:20:47;;;;;;;13.95;10.32;;;;;;;;;;5033325;28;20048;-73
2023/04/18 00:23:13;;;;;;;14.02;10.13;;;;;;;;;;5053131;28;20051;-73
2023/04/18 00:25:39;;;;;;;14.75;10.35;;;;;;;;;;5053712;28;20044;-74
2023/04/18 00:28:06;;;;;;;15.13;9.88;;;;;;;;;;5045898;28;20041;-74
2023/04/18 00:30:32;;;;;;;14.57;9.88;;;;;;;;;;5052573;28;20061;-74
2023/04/18 00:32:58;;;;;;;18.40;10.90;;;;;;;;;;5052843;28;20128;-74
2023/04/18 00:35:24;;;;;;;16.27;10.48;;;;;;;;;;5033508;28;20537;-72
2023/04/18 00:37:50;;;;;;;16.75;11.63;;;;;;;;;;5035617;28;20100;-73
2023/04/18 00:40:16;;;;;;;15.68;11.20;;;;;;;;;;5034850;28;20048;-73
2023/04/18 00:42:42;;;;;;;16.42;11.02;;;;;;;;;;5052922;28;20394;-74
2023/04/18 00:45:09;;;;;;;16.65;10.85;;;;;;;;;;5052763;28;20045;-73
2023/04/18 00:47:36;;;;;;;14.68;10.75;;;;;;;;;;5053046;28;20053;-73
2023/04/18 00:50:02;;;;;;;16.60;10.20;;;;;;;;;;5036852;28;20123;-73
2023/04/18 00:52:28;;;;;;;17.10;10.05;;;;;;;;;;5050392;28;20079;-73
2023/04/18 00:54:54;;;;;;;14.25;9.63;;;;;;;;;;5053357;28;20090;-73
2023/04/18 00:57:21;;;;;;;15.13;9.65;;;;;;;;;;5051345;28;20114;-73
2023/04/18 00:59:47;;;;;;;14.25;9.40;;;;;;;;;;5052514;28;20048;-73
2023/04/18 01:02:13;;;;;;;12.90;9.45;;;;;;;;;;5052570;28;20410;-73
2023/04/18 01:04:41;;;;;;;14.57;9.85;;;;;;;;;;5035051;28;20379;-73
2023/04/18 01:07:08;;;;;;;18.05;10.48;;;;;;;;;;5052711;28;20120;-73
2023/04/18 01:09:34;;;;;;;17.42;9.77;;;;;;;;;;5052660;28;20052;-72
2023/04/18 01:12:00;;;;;;;15.30;10.50;;;;;;;;;;5052355;28;20028;-73
2023/04/18 01:14:26;;;;;;;13.30;9.80;;;;;;;;;;5052894;28;20056;-73
2023/04/18 01:16:52;;;;;;;16.02;9.90;;;;;;;;;;5052285;28;20076;-73
2023/04/18 01:19:18;;;;;;;15.25;10.13;;;;;;;;;;5035222;28;20405;-73
2023/04/18 01:21:44;;;;;;;16.20;10.40;;;;;;;;;;5051235;28;20044;-73
2023/04/18 01:24:11;;;;;;;15.50;10.38;;;;;;;;;;5050543;28;20385;-73
2023/04/18 01:26:37;;;;;;;14.95;10.18;;;;;;;;;;5049085;28;20099;-73
2023/04/18 01:29:03;;;;;;;15.23;10.88;;;;;;;;;;5052119;28;20066;-73
2023/04/18 01:31:30;;;;;;;16.25;10.80;;;;;;;;;;5045209;28;20050;-73
2023/04/18 01:33:56;;;;;;;14.80;10.23;;;;;;;;;;5052213;28;20547;-73
2023/04/18 01:36:22;;;;;;;13.18;9.80;;;;;;;;;;5052184;28;20119;-73
2023/04/18 01:38:48;;;;;;;13.93;9.40;;;;;;;;;;5052351;28;20041;-73
2023/04/18 01:41:14;;;;;;;13.98;9.50;;;;;;;;;;5050718;28;20095;-73
2023/04/18 01:43:40;;;;;;;13.63;9.60;;;;;;;;;;5049528;28;20428;-73
2023/04/18 01:46:05;;;;;;;11.18;8.95;;;;;;;;;;5050206;28;20068;-73
2023/04/18 01:48:32;;;;;;;14.02;9.63;;;;;;;;;;5050242;28;20056;-73
2023/04/18 01:50:58;;;;;;;14.27;9.43;;;;;;;;;;5052079;28;20171;-73
2023/04/18 01:53:24;;;;;;;12.13;9.18;;;;;;;;;;5039199;28;20095;-73
2023/04/18 01:55:50;;;;;;;13.30;9.30;;;;;;;;;;5051011;28;20071;-73
2023/04/18 01:58:21;;;;;;;11.60;8.55;;;;;;;;;;5050517;28;20080;-73
2023/04/18 02:00:47;;;;;;;12.23;8.93;;;;;;;;;;5050073;28;20123;-73
2023/04/18 02:03:13;;;;;;;12.10;8.68;;;;;;;;;;5050153;28;20072;-73
2023/04/18 02:05:39;;;;;;;11.35;8.38;;;;;;;;;;5052020;28;20041;-73
2023/04/18 02:08:05;;;;;;;12.98;9.07;;;;;;;;;;5052451;28;20045;-74
2023/04/18 02:10:31;;;;;;;12.02;8.25;;;;;;;;;;5051831;28;20574;-73
2023/04/18 02:12:57;;;;;;;11.68;7.95;;;;;;;;;;5052165;28;20497;-73
2023/04/18 02:15:24;;;;;;;11.50;8.07;;;;;;;;;;5051806;28;20056;-73
2023/04/18 02:17:49;;;;;;;11.88;8.30;;;;;;;;;;5052047;28;20431;-73
2023/04/18 02:20:16;;;;;;;11.60;7.95;;;;;;;;;;5049927;28;20056;-73
2023/04/18 02:22:42;;;;;;;12.00;7.88;;;;;;;;;;5034038;28;20041;-73
2023/04/18 02:25:09;;;;;;;12.23;8.23;;;;;;;;;;5049712;28;20063;-75
2023/04/18 02:27:35;;;;;;;9.75;7.20;;;;;;;;;;5032990;28;20512;-74
2023/04/18 02:30:02;;;;;;;10.93;7.72;;;;;;;;;;5049061;28;20052;-73
2023/04/18 02:32:28;;;;;;;12.45;7.82;;;;;;;;;;5032701;28;20053;-74
2023/04/18 02:34:54;;;;;;;12.32;7.55;;;;;;;;;;5016895;28;20049;-73
2023/04/18 02:37:20;;;;;;;11.43;7.30;;;;;;;;;;5035390;28;20038;-74
2023/04/18 02:39:46;;;;;;;10.07;6.95;;;;;;;;;;5034913;28;20062;-74
2023/04/18 02:42:13;;;;;;;9.98;7.18;;;;;;;;;;5035379;28;20056;-73
2023/04/18 02:44:39;;;;;;;11.65;7.40;;;;;;;;;;5035326;28;20091;-74
2023/04/18 02:47:05;;;;;;;10.50;7.20;;;;;;;;;;5035064;28;20041;-74
2023/04/18 02:49:31;;;;;;;14.05;7.15;;;;;;;;;;5001448;28;20060;-74
2023/04/18 02:51:57;;;;;;;11.00;7.00;;;;;;;;;;5030326;28;20120;-73
2023/04/18 02:54:23;;;;;;;10.25;7.18;;;;;;;;;;5046206;28;20116;-73
2023/04/18 02:57:00;;;;;;;9.20;6.80;;;;;;;;;;5053482;28;20121;-74
2023/04/18 02:59:26;;;;;;;9.88;7.05;;;;;;;;;;5035047;28;20128;-74
2023/04/18 03:01:52;;;;;;;10.45;7.40;;;;;;;;;;5034917;28;20402;-73
2023/04/18 03:04:20;;;;;;;9.65;7.35;;;;;;;;;;5035215;28;20042;-73
2023/04/18 03:06:47;;;;;;;9.90;7.40;;;;;;;;;;5035243;28;20052;-74
2023/04/18 03:09:14;;;;;;;10.32;7.75;;;;;;;;;;5035092;28;20054;-73
2023/04/18 03:11:40;;;;;;;10.65;7.32;;;;;;;;;;5016397;28;20049;-73
2023/04/18 03:14:06;;;;;;;11.57;6.82;;;;;;;;;;5017230;28;20055;-73
2023/04/18 03:16:32;;;;;;;10.65;7.10;;;;;;;;;;5034434;28;20099;-73
2023/04/18 03:18:58;;;;;;;10.35;7.18;;;;;;;;;;5034848;28;20434;-73
2023/04/18 03:21:24;;;;;;;10.30;7.20;;;;;;;;;;5034112;28;20084;-73
2023/04/18 03:23:51;;;;;;;11.10;7.57;;;;;;;;;;5033904;28;20449;-73
2023/04/18 03:26:18;;;;;;;9.18;6.70;;;;;;;;;;5033325;28;20041;-73
2023/04/18 03:28:44;;;;;;;11.18;7.15;;;;;;;;;;5033268;28;20045;-73
2023/04/18 03:31:10;;;;;;;10.10;6.80;;;;;;;;;;5044627;28;20056;-73
2023/04/18 03:33:38;;;;;;;10.20;6.90;;;;;;;;;;5036406;28;20096;-74
2023/04/18 03:36:07;;;;;;;11.48;7.28;;;;;;;;;;5050823;28;20064;-74
2023/04/18 03:38:33;;;;;;;11.43;7.47;;;;;;;;;;5025116;28;20366;-73
2023/04/18 03:40:59;;;;;;;10.95;6.85;;;;;;;;;;5053662;28;20055;-73
2023/04/18 03:43:25;;;;;;;9.70;6.93;;;;;;;;;;5051627;28;20041;-73
2023/04/18 03:45:51;;;;;;;10.10;7.47;;;;;;;;;;5034781;28;20052;-73
2023/04/18 03:48:17;;;;;;;9.38;7.15;;;;;;;;;;5034824;28;20052;-73
2023/04/18 03:50:43;;;;;;;12.32;6.70;;;;;;;;;;5034522;28;20103;-73
2023/04/18 03:53:09;;;;;;;9.13;7.20;;;;;;;;;;5035564;28;20053;-73
2023/04/18 03:55:35;;;;;;;9.73;6.60;;;;;;;;;;5037996;28;20037;-73
2023/04/18 03:58:01;;;;;;;9.85;6.65;;;;;;;;;;5041406;28;20055;-73
2023/04/18 04:00:27;;;;;;;10.40;7.40;;;;;;;;;;5053900;28;20397;-73
2023/04/18 04:02:53;;;;;;;10.95;7.53;;;;;;;;;;5032985;28;20056;-73
2023/04/18 04:05:19;;;;;;;10.52;7.07;;;;;;;;;;5032341;28;20041;-74
2023/04/18 04:07:45;;;;;;;10.45;6.95;;;;;;;;;;5016750;28;20386;-74
2023/04/18 04:10:11;;;;;;;10.38;6.85;;;;;;;;;;5000161;28;20045;-73
2023/04/18 04:12:37;;;;;;;11.25;7.43;;;;;;;;;;5034062;28;20045;-73
2023/04/18 04:15:03;;;;;;;9.95;6.72;;;;;;;;;;5049018;28;20380;-73
2023/04/18 04:17:29;;;;;;;11.13;7.50;;;;;;;;;;5053945;28;20051;-73
2023/04/18 04:19:55;;;;;;;9.82;7.53;;;;;;;;;;5053891;28;20056;-74
2023/04/18 04:22:21;;;;;;;10.20;7.22;;;;;;;;;;5053687;28;20085;-73
2023/04/18 04:24:47;;;;;;;12.43;8.05;;;;;;;;;;5053699;28;20045;-73
2023/04/18 04:27:13;;;;;;;11.43;8.27;;;;;;;;;;5047170;28;20041;-73
2023/04/18 04:29:40;;;;;;;13.43;7.40;;;;;;;;;;5033424;28;20052;-73
2023/04/18 04:32:06;;;;;;;11.85;7.40;;;;;;;;;;5052729;28;20057;-73
2023/04/18 04:34:34;;;;;;;10.82;7.90;;;;;;;;;;5052954;28;20057;-74
2023/04/18 04:37:00;;;;;;;10.57;7.65;;;;;;;;;;5052724;28;20155;-74
2023/04/18 04:39:29;;;;;;;11.85;7.63;;;;;;;;;;5050880;28;20060;-74
2023/04/18 04:41:56;;;;;;;12.85;8.30;;;;;;;;;;5051927;28;20489;-74
2023/04/18 04:44:24;;;;;;;10.90;7.78;;;;;;;;;;5052950;28;20041;-73
2023/04/18 04:46:51;;;;;;;14.30;7.68;;;;;;;;;;5045737;28;20120;-73
2023/04/18 04:49:17;;;;;;;11.20;8.05;;;;;;;;;;5035006;28;20127;-79
2023/04/18 04:51:43;;;;;;;12.57;8.20;;;;;;;;;;5041354;28;20099;-79
2023/04/18 04:54:09;;;;;;;11.02;8.43;;;;;;;;;;5050395;28;20040;-79
2023/04/18 04:56:35;;;;;;;14.00;7.97;;;;;;;;;;5044720;28;20393;-79
2023/04/18 04:59:01;;;;;;;10.98;8.00;;;;;;;;;;5052627;28;20044;-79
2023/04/18 05:01:27;;;;;;;13.70;8.30;;;;;;;;;;5052903;28;20087;-79
2023/04/18 05:03:53;;;;;;;12.15;8.50;;;;;;;;;;5045985;28;20045;-79
2023/04/18 05:06:21;;;;;;;12.95;8.63;;;;;;;;;;5053294;28;20049;-79
2023/04/18 05:08:47;;;;;;;11.38;8.48;;;;;;;;;;5044828;28;20040;-79
2023/04/18 05:11:14;;;;;;;12.25;8.73;;;;;;;;;;5051487;28;20124;-80
2023/04/18 05:13:40;;;;;;;14.40;8.55;;;;;;;;;;5052313;28;20398;-79
2023/04/18 05:16:06;;;;;;;18.65;9.18;;;;;;;;;;5035093;28;20052;-79
2023/04/18 05:18:32;;;;;;;11.27;8.55;;;;;;;;;;5053175;28;20081;-79
2023/04/18 05:20:58;;;;;;;13.60;8.93;;;;;;;;;;5034726;28;20127;-79
2023/04/18 05:23:24;;;;;;;12.63;8.80;;;;;;;;;;5034578;28;20064;-79
2023/04/18 05:25:51;;;;;;;11.75;8.88;;;;;;;;;;5043751;28;20132;-79
2023/04/18 05:28:17;;;;;;;13.68;8.88;;;;;;;;;;5051243;28;20493;-80
2023/04/18 05:30:44;;;;;;;11.13;8.80;;;;;;;;;;5052480;28;20406;-79
2023/04/18 05:33:10;;;;;;;11.68;9.00;;;;;;;;;;5052642;28;20044;-79
2023/04/18 05:35:36;;;;;;;14.68;9.27;;;;;;;;;;5052810;28;20135;-79
2023/04/18 05:38:02;;;;;;;12.93;8.68;;;;;;;;;;5047059;28;20068;-80
2023/04/18 05:40:29;;;;;;;11.88;8.73;;;;;;;;;;5052049;28;20447;-78
2023/04/18 05:42:55;;;;;;;14.35;9.70;;;;;;;;;;5052317;28;20045;-79
2023/04/18 05:45:21;;;;;;;12.75;9.25;;;;;;;;;;5051510;28;20032;-79
2023/04/18 05:47:47;;;;;;;15.30;9.77;;;;;;;;;;5042128;28;20476;-79
2023/04/18 05:50:13;;;;;;;12.35;9.02;;;;;;;;;;5050742;28;20084;-79
2023/04/18 05:52:39;;;;;;;14.57;9.43;;;;;;;;;;5035509;28;20102;-79
2023/04/18 05:55:05;;;;;;;13.50;9.18;;;;;;;;;;5051849;28;20049;-79
2023/04/18 05:57:31;;;;;;;13.20;8.95;;;;;;;;;;5050322;28;20076;-79
2023/04/18 05:59:58;;;;;;;14.45;9.20;;;;;;;;;;5051803;28;20045;-80
2023/04/18 06:02:24;;;;;;;15.95;9.65;;;;;;;;;;5049033;28;20040;-80
2023/04/18 06:04:50;;;;;;;13.75;9.20;;;;;;;;;;5045381;28;20518;-79
2023/04/18 06:07:16;;;;;;;13.05;8.73;;;;;;;;;;5045952;28;20056;-79
2023/04/18 06:09:43;;;;;;;11.80;8.25;;;;;;;;;;5027844;28;20132;-78
2023/04/18 06:12:12;;;;;;;13.25;8.13;;;;;;;;;;5054276;28;20378;-78
2023/04/18 06:14:38;;;;;;;12.88;8.30;;;;;;;;;;5044572;28;20807;-78
2023/04/18 06:17:06;;;;;;;13.13;8.20;;;;;;;;;;5055840;28;20565;-78
2023/04/18 06:19:32;;;;;;;12.88;8.50;;;;;;;;;;5055523;28;20060;-79
2023/04/18 06:21:58;;;;;;;11.65;8.35;;;;;;;;;;5055994;28;20041;-79
2023/04/18 06:24:24;;;;;;;13.25;8.38;;;;;;;;;;5056247;28;20037;-80
2023/04/18 06:26:50;;;;;;;13.50;8.80;;;;;;;;;;5056281;28;20041;-80
2023/04/18 06:29:17;;;;;;;12.50;7.90;;;;;;;;;;5037973;28;20049;-80
2023/04/18 06:31:45;;;;;;;11.60;8.15;;;;;;;;;;5050429;28;20056;-78
2023/04/18 06:34:11;;;;;;;12.40;8.27;;;;;;;;;;5058191;28;20048;-78
2023/04/18 06:36:37;;;;;;;15.15;8.20;;;;;;;;;;5056118;28;20091;-79
2023/04/18 06:39:03;;;;;;;12.15;7.90;;;;;;;;;;5048418;28;20425;-79
2023/04/18 06:41:30;;;;;;;12.07;7.80;;;;;;;;;;5054989;28;20079;-79
2023/04/18 06:43:56;;;;;;;12.68;8.10;;;;;;;;;;5049176;28;20077;-80
2023/04/18 06:46:22;;;;;;;14.02;8.02;;;;;;;;;;5054996;28;20045;-79
2023/04/18 06:48:49;;;;;;;12.07;7.82;;;;;;;;;;5047870;28;20400;-80
2023/04/18 06:51:15;;;;;;;11.85;7.80;;;;;;;;;;5054012;28;20044;-79
2023/04/18 06:53:41;;;;;;;16.42;7.80;;;;;;;;;;5036171;28;20048;-79
2023/04/18 06:56:07;;;;;;;14.50;8.05;;;;;;;;;;5040205;28;20056;-79
2023/04/18 06:58:33;;;;;;;12.70;8.02;;;;;;;;;;5053224;28;20037;-80
2023/04/18 07:00:59;;;;;;;12.57;8.27;;;;;;;;;;5047652;28;20521;-79
2023/04/18 07:03:25;;;;;;;13.35;7.80;;;;;;;;;;5052909;28;20045;-80
2023/04/18 07:05:51;;;;;;;11.68;8.10;;;;;;;;;;5053865;28;20087;-77
2023/04/18 07:08:17;;;;;;;14.45;7.90;;;;;;;;;;5052471;28;20041;-81
2023/04/18 07:10:43;;;;;;;13.05;7.78;;;;;;;;;;5046915;28;20045;-80
2023/04/18 07:13:10;;;;;;;11.93;7.95;;;;;;;;;;5053331;28;20041;-80
2023/04/18 07:15:36;;;;;;;12.02;7.60;;;;;;;;;;5053277;28;20405;-80
2023/04/18 07:18:02;;;;;;;11.95;8.02;;;;;;;;;;5053903;28;20486;-80
2023/04/18 07:20:28;;;;;;;12.93;8.00;;;;;;;;;;5037025;28;20052;-77
2023/04/18 07:22:54;;;;;;;13.55;7.82;;;;;;;;;;5015635;28;20406;-79
2023/04/18 07:25:20;;;;;;;12.48;8.38;;;;;;;;;;5058297;28;20413;-80
2023/04/18 07:27:46;;;;;;;14.65;8.77;;;;;;;;;;5046061;28;20458;-79
2023/04/18 07:30:13;;;;;;;12.20;8.68;;;;;;;;;;5052280;28;20128;-79
2023/04/18 07:32:39;;;;;;;13.57;8.60;;;;;;;;;;5053882;28;20053;-79
2023/04/18 07:35:05;;;;;;;14.23;8.77;;;;;;;;;;5036483;28;20545;-79
2023/04/18 07:37:32;;;;;;;13.80;8.85;;;;;;;;;;5036529;28;20106;-79
2023/04/18 07:39:58;;;;;;;13.75;8.95;;;;;;;;;;5054278;28;20049;-79
2023/04/18 07:42:25;;;;;;;11.23;8.38;;;;;;;;;;5018327;28;20044;-80
2023/04/18 07:44:56;;;;;;;12.23;8.90;;;;;;;;;;5053768;28;20076;-80
2023/04/18 07:47:22;;;;;;;13.85;9.10;;;;;;;;;;5036483;28;20118;-80
2023/04/18 07:49:48;;;;;;;13.73;9.00;;;;;;;;;;5053977;28;20036;-80
2023/04/18 07:52:14;;;;;;;12.20;8.18;;;;;;;;;;5029261;28;20038;-80
2023/04/18 07:54:40;;;;;;;12.70;8.60;;;;;;;;;;5035101;28;20094;-80
2023/04/18 07:57:06;;;;;;;14.30;8.68;;;;;;;;;;5054262;28;20393;-80
2023/04/18 07:59:32;;;;;;;12.35;8.88;;;;;;;;;;5035894;28;20056;-79
2023/04/18 08:01:59;;;;;;;12.45;8.88;;;;;;;;;;5050555;28;20044;-80
2023/04/18 08:04:25;;;;;;;13.13;9.13;;;;;;;;;;5030713;28;20240;-80
2023/04/18 08:06:51;;;;;;;13.70;8.30;;;;;;;;;;5052712;28;20041;-80
2023/04/18 08:09:19;;;;;;;14.65;9.07;;;;;;;;;;5035643;28;20040;-79
2023/04/18 08:11:45;;;;;;;13.98;8.35;;;;;;;;;;5018537;28;20486;-80
2023/04/18 08:14:11;;;;;;;11.05;8.13;;;;;;;;;;5019546;28;20055;-80
2023/04/18 08:16:37;;;;;;;15.23;8.57;;;;;;;;;;5055119;28;20099;-80
2023/04/18 08:19:04;;;;;;;13.70;8.25;;;;;;;;;;5035752;28;20481;-79
2023/04/18 08:21:31;;;;;;;26.98;8.52;;;;;;;;;;5036121;28;20057;-79
2023/04/18 08:23:57;;;;;;;14.38;8.25;;;;;;;;;;5035621;28;20051;-80
2023/04/18 08:26:23;;;;;;;11.15;8.38;;;;;;;;;;5035499;28;20049;-81
2023/04/18 08:28:49;;;;;;;12.65;8.00;;;;;;;;;;5053342;28;20382;-79
2023/04/18 08:31:15;;;;;;;12.88;7.85;;;;;;;;;;5041480;28;20057;-80
2023/04/18 08:33:42;;;;;;;11.93;7.90;;;;;;;;;;5072053;28;20398;-79
2023/04/18 08:36:10;;;;;;;11.90;8.60;;;;;;;;;;5053053;28;20055;-77
2023/04/18 08:38:36;;;;;;;13.35;7.93;;;;;;;;;;5050323;28;20044;-78
2023/04/18 08:41:02;;;;;;;12.95;7.53;;;;;;;;;;5051627;28;20049;-79
2023/04/18 08:43:30;;;;;;;11.98;7.65;;;;;;;;;;5052840;28;20041;-79
2023/04/18 08:45:59;;;;;;;12.75;8.10;;;;;;;;;;5035180;28;20501;-79
2023/04/18 08:48:28;;;;;;;13.07;7.57;;;;;;;;;;5052286;28;20041;-79
2023/04/18 08:50:57;;;;;;;12.23;7.72;;;;;;;;;;5018533;28;20041;-79
2023/04/18 08:53:25;;;;;;;12.65;7.38;;;;;;;;;;5051747;28;20159;-81
2023/04/18 08:55:56;;;;;;;12.05;7.78;;;;;;;;;;5052472;28;20045;-79
2023/04/18 08:58:25;;;;;;;11.80;7.55;;;;;;;;;;5047010;28;20374;-79
2023/04/18 09:00:52;;;;;;;14.13;7.53;;;;;;;;;;5050312;28;20081;-80
2023/04/18 09:03:38;;;;;;;13.07;7.70;;;;;;;;;;5051472;28;20142;-79
2023/04/18 09:06:19;;;;;;;11.60;7.70;;;;;;;;;;5052003;28;20510;-79
2023/04/18 09:08:57;;;;;;;13.45;7.82;;;;;;;;;;5052085;28;20045;-79
2023/04/18 09:11:28;;;;;;;16.65;7.97;;;;;;;;;;5052310;28;20079;-80
2023/04/18 09:13:58;;;;;;;11.25;7.72;;;;;;;;;;5051087;28;20041;-79
2023/04/18 09:16:26;;;;;;;12.68;8.13;;;;;;;;;;5052177;28;20405;-79
2023/04/18 09:19:27;;;;;;;17.17;8.27;;;;;;;;;;5051490;28;20119;-79
2023/04/18 09:21:57;;;;;;;13.00;8.02;;;;;;;;;;4984932;28;20068;-80
2023/04/18 09:24:25;;;;;;;11.48;7.15;;;;;;;;;;5041010;28;20556;-80
2023/04/18 09:26:55;;;;;;;10.27;7.05;;;;;;;;;;5052683;28;20056;-79
2023/04/18 09:29:42;;;;;;;13.02;7.10;;;;;;;;;;5052569;28;20505;-78
2023/04/18 09:32:08;;;;;;;11.85;6.82;;;;;;;;;;5054083;28;20072;-79
2023/04/18 09:34:37;;;;;;;11.20;7.00;;;;;;;;;;5052259;28;20060;-79
2023/04/18 09:37:12;;;;;;;11.90;7.22;;;;;;;;;;5052956;28;20124;-80
2023/04/18 09:39:39;;;;;;;8.63;6.32;;;;;;;;;;5052309;28;20122;-81
2023/04/18 09:42:06;;;;;;;9.75;6.25;;;;;;;;;;5034201;28;20059;-80
2023/04/18 09:44:32;;;;;;;11.40;6.85;;;;;;;;;;5034803;28;20103;-81
2023/04/18 09:46:59;;;;;;;12.38;6.50;;;;;;;;;;5034941;28;20048;-81
2023/04/18 09:49:25;;;;;;;12.05;6.20;;;;;;;;;;5034213;28;20049;-80
2023/04/18 09:51:52;;;;;;;7.07;5.68;;;;;;;;;;5034241;28;20421;-81
2023/04/18 09:54:19;;;;;;;8.40;6.00;;;;;;;;;;5033932;28;20493;-81
2023/04/18 09:56:46;;;;;;;8.05;5.72;;;;;;;;;;5034834;28;20053;-77
2023/04/18 09:59:15;;;;;;;7.82;5.63;;;;;;;;;;5034359;28;20099;-81
2023/04/18 10:01:44;;;;;;;8.90;5.45;;;;;;;;;;5016399;28;20044;-81
2023/04/18 10:04:11;;;;;;;8.93;5.40;;;;;;;;;;5050322;28;20049;-80
2023/04/18 10:06:38;;;;;;;9.07;5.45;;;;;;;;;;5034799;28;20132;-79
2023/04/18 10:09:06;;;;;;;7.07;5.10;;;;;;;;;;5052701;28;20033;-79
2023/04/18 10:11:32;;;;;;;6.93;4.95;;;;;;;;;;5028877;28;20049;-80
2023/04/18 10:14:00;;;;;;;8.50;4.80;;;;;;;;;;5032632;28;20394;-79
2023/04/18 10:16:27;;;;;;;9.23;4.70;;;;;;;;;;5032310;28;20096;-80
2023/04/18 10:18:53;;;;;;;8.38;5.00;;;;;;;;;;5032243;28;20486;-80
2023/04/18 10:21:20;;;;;;;6.88;4.25;;;;;;;;;;5032327;28;20106;-80
2023/04/18 10:23:47;;;;;;;7.90;4.60;;;;;;;;;;5044502;28;20059;-80
2023/04/18 10:26:14;;;;;;;6.30;4.18;;;;;;;;;;5052045;28;20047;-80
2023/04/18 10:28:55;;;;;;;8.90;4.00;;;;;;;;;;5033129;28;20045;-80
2023/04/18 10:31:28;;;;;;;5.28;4.20;;;;;;;;;;5022073;28;20453;-80
2023/04/18 10:33:56;;;;;;;6.93;4.18;;;;;;;;;;5052311;28;20175;-79
2023/04/18 10:36:22;;;;;;;5.93;4.10;;;;;;;;;;5052186;28;20037;-80
2023/04/18 10:38:50;;;;;;;6.32;4.35;;;;;;;;;;5051992;28;20069;-79
2023/04/18 10:41:16;;;;;;;5.10;4.00;;;;;;;;;;5050907;28;20508;-80
2023/04/18 10:44:18;;;;;;;6.18;4.10;;;;;;;;;;5043405;28;20048;-78
2023/04/18 10:46:50;;;;;;;6.53;4.40;;;;;;;;;;4991735;28;20188;-69
2023/04/18 10:49:16;;;;;;;8.43;4.05;;;;;;;;;;5037821;28;20060;-70
2023/04/18 10:51:45;;;;;;;7.88;4.30;;;;;;;;;;5040252;28;20041;-70
2023/04/18 10:54:13;;;;;;;6.60;4.15;;;;;;;;;;5049036;28;20052;-71
2023/04/18 10:56:39;;;;;;;6.20;4.38;;;;;;;;;;5044236;28;20060;-71
2023/04/18 10:59:05;;;;;;;7.20;4.57;;;;;;;;;;5053326;28;20045;-71
2023/04/18 11:01:32;;;;;;;6.68;4.32;;;;;;;;;;5052555;28;20175;-71
2023/04/18 11:03:58;;;;;;;5.75;4.15;;;;;;;;;;5045906;28;20549;-71
2023/04/18 11:06:26;;;;;;;6.25;4.60;;;;;;;;;;5033979;28;20052;-71
2023/04/18 11:09:08;;;;;;;6.05;4.25;;;;;;;;;;5045184;28;20049;-71
2023/04/18 11:11:34;;;;;;;8.73;4.40;;;;;;;;;;5052320;28;20044;-76
2023/04/18 11:14:00;;;;;;;6.57;4.22;;;;;;;;;;5054522;28;20385;-75
2023/04/18 11:16:30;;;;;;;8.38;4.70;;;;;;;;;;5051216;28;20045;-75
2023/04/18 11:18:56;;;;;;;9.77;4.75;;;;;;;;;;5053480;28;20037;-75
2023/04/18 11:21:28;;;;;;;8.20;4.70;;;;;;;;;;5053032;28;20060;-77
2023/04/18 11:23:55;;;;;;;6.70;4.88;;;;;;;;;;5054461;28;20041;-80
2023/04/18 11:26:25;;;;;;;7.95;4.60;;;;;;;;;;5051603;28;20080;-80
2023/04/18 11:28:51;;;;;;;7.25;4.93;;;;;;;;;;5054815;28;20040;-80
2023/04/18 11:31:18;;;;;;;6.60;4.93;;;;;;;;;;5054315;28;20052;-80
2023/04/18 11:33:47;;;;;;;6.18;4.22;;;;;;;;;;5054855;28;20401;-80
2023/04/18 11:36:13;;;;;;;8.15;4.80;;;;;;;;;;5036331;28;20045;-78
2023/04/18 11:38:40;;;;;;;5.97;4.55;;;;;;;;;;5052446;28;20080;-80
2023/04/18 11:41:12;;;;;;;7.93;3.97;;;;;;;;;;5052979;28;20041;-79
2023/04/18 11:43:41;;;;;;;6.47;3.78;;;;;;;;;;5054758;28;20049;-79
2023/04/18 11:46:07;;;;;;;5.57;3.50;;;;;;;;;;5054541;28;20049;-78
2023/04/18 11:48:40;;;;;;;5.47;3.90;;;;;;;;;;5054142;28;20502;-78
2023/04/18 11:51:07;;;;;;;7.47;3.63;;;;;;;;;;5036055;28;20056;-76
2023/04/18 11:53:37;;;;;;;5.13;3.72;;;;;;;;;;5015481;28;20050;-76
2023/04/18 11:56:04;;;;;;;4.85;3.40;;;;;;;;;;4996937;28;20045;-75
2023/04/18 11:58:31;;;;;;;4.90;3.38;;;;;;;;;;5014494;28;20046;-76
2023/04/18 12:00:58;;;;;;;5.88;2.92;;;;;;;;;;5014050;28;20050;-77
2023/04/18 12:03:24;;;;;;;5.00;3.08;;;;;;;;;;4996362;28;20042;-77
2023/04/18 12:05:58;;;;;;;6.40;3.60;;;;;;;;;;5013485;28;20046;-77
2023/04/18 12:08:25;;;;;;;7.25;3.30;;;;;;;;;;4996443;28;20528;-77
2023/04/18 12:10:52;;;;;;;5.05;3.10;;;;;;;;;;4996282;28;20129;-80
2023/04/18 12:13:23;;;;;;;5.10;3.10;;;;;;;;;;5014817;28;20045;-77
2023/04/18 12:15:49;;;;;;;6.80;2.90;;;;;;;;;;5014929;28;20042;-79
2023/04/18 12:18:18;;;;;;;4.13;2.50;;;;;;;;;;5014576;28;20056;-79
2023/04/18 12:20:48;;;;;;;5.72;2.70;;;;;;;;;;5031553;28;20448;-78
2023/04/18 12:23:34;;;;;;;3.67;2.40;;;;;;;;;;4999375;28;20041;-78
2023/04/18 12:26:02;;;;;;;6.20;2.95;;;;;;;;;;5033903;28;20129;-77
2023/04/18 12:28:28;;;;;;;4.22;2.80;;;;;;;;;;5034087;28;20469;-78
2023/04/18 12:30:54;;;;;;;3.88;2.85;;;;;;;;;;5039574;28;20061;-78
2023/04/18 12:33:20;;;;;;;4.05;2.95;;;;;;;;;;5056425;28;20048;-79
2023/04/18 12:35:47;;;;;;;7.00;3.13;;;;;;;;;;5054750;28;20037;-79
2023/04/18 12:38:13;;;;;;;5.30;3.00;;;;;;;;;;5036450;28;20055;-80
2023/04/18 12:40:39;;;;;;;7.50;3.35;;;;;;;;;;5053523;28;20041;-79
2023/04/18 12:43:06;;;;;;;7.43;3.15;;;;;;;;;;5035756;28;20096;-80
2023/04/18 12:45:32;;;;;;;5.20;3.20;;;;;;;;;;5053302;28;20486;-80
2023/04/18 12:47:59;;;;;;;6.10;3.22;;;;;;;;;;5033925;28;20401;-80
2023/04/18 12:50:25;;;;;;;4.43;3.03;;;;;;;;;;5035180;28;20048;-80
2023/04/18 12:52:53;;;;;;;5.05;3.40;;;;;;;;;;5026678;28;20155;-80
2023/04/18 12:55:19;;;;;;;6.75;3.50;;;;;;;;;;5034626;28;20052;-80
2023/04/18 12:57:45;;;;;;;5.47;3.33;;;;;;;;;;5035180;28;20048;-79
2023/04/18 13:00:11;;;;;;;5.97;3.38;;;;;;;;;;5018194;28;20056;-79
2023/04/18 13:02:39;;;;;;;6.30;3.30;;;;;;;;;;5052747;28;20045;-80
2023/04/18 13:05:09;;;;;;;6.18;3.05;;;;;;;;;;5026823;28;20042;-79
2023/04/18 13:07:46;;;;;;;7.22;3.75;;;;;;;;;;5015291;28;20056;-79
2023/04/18 13:10:19;;;;;;;8.27;3.40;;;;;;;;;;5032419;28;20494;-79
2023/04/18 13:12:45;;;;;;;5.82;3.33;;;;;;;;;;5048991;28;20072;-80
2023/04/18 13:15:12;;;;;;;7.75;3.70;;;;;;;;;;5033913;28;20052;-80
2023/04/18 13:17:38;;;;;;;6.90;3.70;;;;;;;;;;5034334;28;20389;-80
2023/04/18 13:20:05;;;;;;;6.60;3.88;;;;;;;;;;5017844;28;20127;-80
2023/04/18 13:22:32;;;;;;;5.53;3.65;;;;;;;;;;5041406;28;20048;-79
2023/04/18 13:24:58;;;;;;;9.55;4.00;;;;;;;;;;5017616;28;20082;-80
2023/04/18 13:27:25;;;;;;;4.93;3.65;;;;;;;;;;5050829;28;20041;-79
2023/04/18 13:29:51;;;;;;;5.07;3.95;;;;;;;;;;5032679;28;20461;-79
2023/04/18 13:32:17;;;;;;;5.55;3.70;;;;;;;;;;5052075;28;20053;-79
2023/04/18 13:34:45;;;;;;;8.60;3.67;;;;;;;;;;5034457;28;20049;-79
2023/04/18 13:37:11;;;;;;;5.63;3.85;;;;;;;;;;5052173;28;20056;-79
2023/04/18 13:39:37;;;;;;;5.47;4.20;;;;;;;;;;5052033;28;20054;-79
2023/04/18 13:42:03;;;;;;;7.95;4.20;;;;;;;;;;5052091;28;20387;-79
2023/04/18 13:44:30;;;;;;;7.45;4.38;;;;;;;;;;5018248;28;20114;-79
2023/04/18 13:46:56;;;;;;;6.13;4.32;;;;;;;;;;5014194;28;20111;-79
2023/04/18 13:49:22;;;;;;;6.22;4.55;;;;;;;;;;5012758;28;20080;-79
2023/04/18 13:51:52;;;;;;;7.82;5.47;;;;;;;;;;4998940;28;20327;-79
2023/04/18 13:54:18;;;;;;;7.85;5.30;;;;;;;;;;5034180;28;20056;-79
2023/04/18 13:56:44;;;;;;;10.45;5.60;;;;;;;;;;5050791;28;20049;-79
2023/04/18 13:59:10;;;;;;;8.80;5.70;;;;;;;;;;5050312;28;20401;-79
2023/04/18 14:01:36;;;;;;;7.88;5.53;;;;;;;;;;5052096;28;20127;-79
2023/04/18 14:04:03;;;;;;;8.35;5.30;;;;;;;;;;5033921;28;20053;-79
2023/04/18 14:06:29;;;;;;;7.82;5.65;;;;;;;;;;5032953;28;20076;-79
2023/04/18 14:08:55;;;;;;;8.93;5.55;;;;;;;;;;5017477;28;20117;-80
2023/04/18 14:11:22;;;;;;;12.60;5.57;;;;;;;;;;5033977;28;20045;-78
2023/04/18 14:13:48;;;;;;;7.28;5.30;;;;;;;;;;5034207;28;20075;-79
2023/04/18 14:16:14;;;;;;;12.15;6.93;;;;;;;;;;5034364;28;20400;-80
2023/04/18 14:18:40;;;;;;;10.45;6.75;;;;;;;;;;5034031;28;20049;-78
2023/04/18 14:21:06;;;;;;;10.30;7.35;;;;;;;;;;5052215;28;20041;-78
2023/04/18 14:23:34;;;;;;;13.02;7.60;;;;;;;;;;5052182;28;20048;-80
2023/04/18 14:26:00;;;;;;;13.52;7.32;;;;;;;;;;5033781;28;20144;-79
2023/04/18 14:28:26;;;;;;;9.07;6.50;;;;;;;;;;5050283;28;20401;-78
2023/04/18 14:30:56;;;;;;;8.52;6.25;;;;;;;;;;5054213;28;20061;-79
2023/04/18 14:33:23;;;;;;;10.55;6.75;;;;;;;;;;5055684;28;20055;-78